createdAt,value
2022-10-19T00:00:36.786Z,7.78
2022-10-19T00:03:28.844Z,7.53
2022-10-19T00:05:58.389Z,7.13
2022-10-19T00:08:28.901Z,3.80
2022-10-19T00:10:58.378Z,15.18
2022-10-19T00:13:27.576Z,5.88
2022-10-19T00:18:25.868Z,7.10
2022-10-19T00:21:03.276Z,8.07
2022-10-19T00:23:34.137Z,11.18
2022-10-19T00:26:03.863Z,16.13
2022-10-19T00:28:33.378Z,10.13
2022-10-19T00:31:05.071Z,3.83
2022-10-19T00:33:34.449Z,5.55
2022-10-19T00:38:34.734Z,5.72
2022-10-19T00:41:04.782Z,5.28
2022-10-19T00:43:34.180Z,2.78
2022-10-19T00:48:34.249Z,4.20
2022-10-19T00:51:03.930Z,6.78
2022-10-19T00:53:34.738Z,9.05
2022-10-19T00:56:08.895Z,8.55
2022-10-19T00:58:38.394Z,4.85
2022-10-19T01:01:10.551Z,8.40
2022-10-19T01:03:40.550Z,8.95
2022-10-19T01:06:11.401Z,9.82
2022-10-19T01:08:42.008Z,9.32
2022-10-19T01:11:24.313Z,5.55
2022-10-19T01:14:10.791Z,5.05
2022-10-19T01:16:54.770Z,10.68
2022-10-19T01:19:55.978Z,4.05
2022-10-19T01:22:34.831Z,5.95
2022-10-19T01:25:20.782Z,3.40
2022-10-19T01:28:04.524Z,7.13
2022-10-19T01:30:45.904Z,2.97
2022-10-19T01:33:30.399Z,7.65
2022-10-19T01:36:09.680Z,5.10
2022-10-19T01:38:50.323Z,8.60
2022-10-19T01:41:28.216Z,4.13
2022-10-19T01:44:02.943Z,4.30
2022-10-19T01:46:39.204Z,4.70
2022-10-19T01:49:15.191Z,6.03
2022-10-19T01:51:50.713Z,3.88
2022-10-19T01:54:22.663Z,5.72
2022-10-19T01:56:53.563Z,7.63
2022-10-19T01:59:23.784Z,5.32
2022-10-19T02:01:56.041Z,2.65
2022-10-19T02:04:26.768Z,4.13
2022-10-19T02:06:56.733Z,4.97
2022-10-19T02:09:26.287Z,5.55
2022-10-19T02:11:58.008Z,2.92
2022-10-19T02:14:32.113Z,3.53
2022-10-19T02:17:07.186Z,2.83
2022-10-19T02:19:37.679Z,2.70
2022-10-19T02:22:07.476Z,2.92
2022-10-19T02:24:37.015Z,4.88
2022-10-19T02:27:08.502Z,3.20
2022-10-19T02:29:39.796Z,2.95
2022-10-19T02:32:12.221Z,2.35
2022-10-19T02:34:42.483Z,2.38
2022-10-19T02:37:11.974Z,1.70
2022-10-19T02:39:41.969Z,2.42
2022-10-19T02:44:48.649Z,1.27
2022-10-19T02:47:22.905Z,4.57
2022-10-19T02:49:53.258Z,5.38
2022-10-19T02:52:22.381Z,5.22
2022-10-19T02:57:23.064Z,2.17
2022-10-19T02:59:53.409Z,3.13
2022-10-19T03:02:24.392Z,7.13
2022-10-19T03:04:53.735Z,2.00
2022-10-19T03:07:23.402Z,4.75
2022-10-19T03:09:53.003Z,1.77
2022-10-19T03:12:22.183Z,2.42
2022-10-19T03:14:51.888Z,3.92
2022-10-19T03:19:51.689Z,2.33
2022-10-19T03:22:20.841Z,2.03
2022-10-19T03:24:50.301Z,1.73
2022-10-19T03:27:19.514Z,6.20
2022-10-19T03:32:17.950Z,4.25
2022-10-19T03:37:17.612Z,7.90
2022-10-19T03:39:47.073Z,3.95
2022-10-19T03:42:16.294Z,4.13
2022-10-19T03:47:14.706Z,8.27
2022-10-19T03:49:44.814Z,3.85
2022-10-19T03:52:13.952Z,2.28
2022-10-19T03:54:45.000Z,5.15
2022-10-19T03:57:14.667Z,2.95
2022-10-19T03:59:43.996Z,5.90
2022-10-19T04:02:13.158Z,2.58
2022-10-19T04:04:42.543Z,1.95
2022-10-19T04:07:11.627Z,2.55
2022-10-19T04:09:41.473Z,3.63
2022-10-19T04:12:12.336Z,2.45
2022-10-19T04:14:56.357Z,6.43
2022-10-19T04:17:27.195Z,6.07
2022-10-19T04:19:56.612Z,3.42
2022-10-19T04:22:25.824Z,1.73
2022-10-19T04:24:55.883Z,1.75
2022-10-19T04:27:26.421Z,1.85
2022-10-19T04:29:55.813Z,1.67
2022-10-19T04:32:24.972Z,3.38
2022-10-19T04:34:54.411Z,1.20
2022-10-19T04:37:23.566Z,4.55
2022-10-19T04:39:52.965Z,3.78
2022-10-19T04:42:22.077Z,0.75
2022-10-19T04:47:21.933Z,1.88
2022-10-19T04:49:51.342Z,2.63
2022-10-19T04:52:20.484Z,1.55
2022-10-19T04:57:19.001Z,1.40
2022-10-19T05:02:18.708Z,1.55
2022-10-19T05:04:50.320Z,3.40
2022-10-19T05:07:19.536Z,2.70
2022-10-19T05:12:17.801Z,4.53
2022-10-19T05:14:47.308Z,3.13
2022-10-19T05:17:17.806Z,6.40
2022-10-19T05:19:47.251Z,0.63
2022-10-19T05:22:16.362Z,0.95
2022-10-19T05:24:45.690Z,2.05
2022-10-19T05:27:14.936Z,2.95
2022-10-19T05:29:44.249Z,1.20
2022-10-19T05:32:13.467Z,2.13
2022-10-19T05:34:44.294Z,1.92
2022-10-19T05:37:13.535Z,2.72
2022-10-19T05:39:42.881Z,1.50
2022-10-19T05:42:12.079Z,1.85
2022-10-19T05:44:41.498Z,4.50
2022-10-19T05:47:10.922Z,2.50
2022-10-19T05:49:40.232Z,4.55
2022-10-19T05:52:10.803Z,2.65
2022-10-19T05:54:40.218Z,3.22
2022-10-19T05:57:09.459Z,1.80
2022-10-19T05:59:38.787Z,4.63
2022-10-19T06:02:07.948Z,2.00
2022-10-19T06:04:37.614Z,2.65
2022-10-19T06:07:06.718Z,2.17
2022-10-19T06:09:37.539Z,3.20
2022-10-19T06:12:07.084Z,2.53
2022-10-19T06:14:36.512Z,3.17
2022-10-19T06:17:06.748Z,3.83
2022-10-19T06:19:36.209Z,3.00
2022-10-19T06:22:05.540Z,3.63
2022-10-19T06:24:36.446Z,4.20
2022-10-19T06:27:06.742Z,6.80
2022-10-19T06:29:36.504Z,2.78
2022-10-19T06:34:35.067Z,2.20
2022-10-19T06:37:04.257Z,3.63
2022-10-19T06:42:04.075Z,4.35
2022-10-19T06:44:33.485Z,6.47
2022-10-19T06:47:02.653Z,3.20
2022-10-19T06:49:32.211Z,3.78
2022-10-19T06:52:01.423Z,3.05
2022-10-19T06:57:00.593Z,2.97
2022-10-19T06:59:31.469Z,6.03
2022-10-19T07:02:00.798Z,5.47
2022-10-19T07:04:30.542Z,2.45
2022-10-19T07:07:00.517Z,4.80
2022-10-19T07:09:30.011Z,1.58
2022-10-19T07:11:59.166Z,2.80
2022-10-19T07:14:31.642Z,4.13
2022-10-19T07:17:01.558Z,0.95
2022-10-19T07:19:32.430Z,2.10
2022-10-19T07:22:01.689Z,3.33
2022-10-19T07:24:31.157Z,3.03
2022-10-19T07:27:00.335Z,5.25
2022-10-19T07:29:31.067Z,5.00
2022-10-19T07:32:00.325Z,2.40
2022-10-19T07:34:29.870Z,3.05
2022-10-19T07:36:59.059Z,2.00
2022-10-19T07:39:28.536Z,2.53
2022-10-19T07:41:57.772Z,2.83
2022-10-19T07:44:27.907Z,4.88
2022-10-19T07:46:59.291Z,3.03
2022-10-19T07:49:30.213Z,4.38
2022-10-19T07:51:59.319Z,7.00
2022-10-19T07:54:28.947Z,4.50
2022-10-19T07:56:58.076Z,3.85
2022-10-19T07:59:27.632Z,3.83
2022-10-19T08:01:59.311Z,4.22
2022-10-19T08:04:59.103Z,3.15
2022-10-19T08:07:18.260Z,3.85
2022-10-19T08:12:23.090Z,2.88
2022-10-19T08:14:52.410Z,3.78
2022-10-19T08:17:23.290Z,2.30
2022-10-19T08:19:52.710Z,2.22
2022-10-19T08:22:21.811Z,1.98
2022-10-19T08:24:51.496Z,1.55
2022-10-19T08:27:20.595Z,2.45
2022-10-19T08:29:50.034Z,2.60
2022-10-19T08:32:19.723Z,1.75
2022-10-19T08:34:50.571Z,2.25
2022-10-19T08:37:32.549Z,4.65
2022-10-19T08:42:57.155Z,2.75
2022-10-19T08:48:34.023Z,2.63
2022-10-19T08:51:09.309Z,1.08
2022-10-19T08:53:45.128Z,5.78
2022-10-19T08:56:49.356Z,1.60
2022-10-19T08:59:27.276Z,1.67
2022-10-19T09:01:59.403Z,1.80
2022-10-19T09:04:34.001Z,1.70
2022-10-19T09:07:25.443Z,4.10
2022-10-19T09:09:59.472Z,2.42
2022-10-19T09:12:44.223Z,3.53
2022-10-19T09:15:16.647Z,2.33
2022-10-19T09:17:46.418Z,1.48
2022-10-19T09:22:52.179Z,3.42
2022-10-19T09:25:24.147Z,5.05
2022-10-19T09:28:04.725Z,1.42
2022-10-19T09:30:39.541Z,7.90
2022-10-19T09:33:29.647Z,3.00
2022-10-19T09:36:02.262Z,2.83
2022-10-19T09:38:33.600Z,2.47
2022-10-19T09:41:16.819Z,2.53
2022-10-19T09:43:53.589Z,4.68
2022-10-19T09:46:38.872Z,5.47
2022-10-19T09:49:08.636Z,3.97
2022-10-19T09:51:46.362Z,3.70
2022-10-19T09:54:32.395Z,5.75
2022-10-19T09:57:01.851Z,1.38
2022-10-19T09:59:35.044Z,4.40
2022-10-19T10:02:31.554Z,4.50
2022-10-19T10:05:07.628Z,1.77
2022-10-19T10:07:39.610Z,2.25
2022-10-19T10:10:28.093Z,2.28
2022-10-19T10:13:00.926Z,1.35
2022-10-19T10:15:37.710Z,2.30
2022-10-19T10:18:07.152Z,1.67
2022-10-19T10:23:07.216Z,3.88
2022-10-19T10:25:38.858Z,2.63
2022-10-19T10:28:20.625Z,5.60
2022-10-19T10:30:54.699Z,2.67
2022-10-19T10:33:40.751Z,2.92
2022-10-19T10:36:15.068Z,1.13
2022-10-19T10:38:48.613Z,6.13
2022-10-19T10:41:23.224Z,1.65
2022-10-19T10:43:58.515Z,0.85
2022-10-19T10:46:35.801Z,2.85
2022-10-19T10:49:07.772Z,2.83
2022-10-19T10:51:49.196Z,1.55
2022-10-19T10:54:22.846Z,1.77
2022-10-19T10:57:20.381Z,2.53
2022-10-19T10:59:56.464Z,2.60
2022-10-19T11:02:36.809Z,2.00
2022-10-19T11:05:12.193Z,2.25
2022-10-19T11:07:45.766Z,2.67
2022-10-19T11:10:25.548Z,2.25
2022-10-19T11:13:05.984Z,2.75
2022-10-19T11:15:47.240Z,1.17
2022-10-19T11:18:22.697Z,2.17
2022-10-19T11:21:02.406Z,1.83
2022-10-19T11:23:55.338Z,1.90
2022-10-19T11:26:43.019Z,2.67
2022-10-19T11:29:28.950Z,4.32
2022-10-19T11:31:59.370Z,2.78
2022-10-19T11:34:50.139Z,2.42
2022-10-19T11:37:27.597Z,3.70
2022-10-19T11:40:11.959Z,1.10
2022-10-19T11:42:50.973Z,1.40
2022-10-19T11:45:33.573Z,0.82
2022-10-19T11:48:18.345Z,2.78
2022-10-19T11:51:04.106Z,3.67
2022-10-19T11:53:58.692Z,2.30
2022-10-19T11:56:45.037Z,1.00
2022-10-19T11:59:35.757Z,0.93
2022-10-19T12:02:22.627Z,0.82
2022-10-19T12:04:58.569Z,1.75
2022-10-19T12:07:46.473Z,1.17
2022-10-19T12:10:25.896Z,0.35
2022-10-19T12:12:59.639Z,1.77
2022-10-19T12:15:32.706Z,1.15
2022-10-19T12:18:12.791Z,0.40
2022-10-19T12:20:48.438Z,2.38
2022-10-19T12:23:26.053Z,0.95
2022-10-19T12:25:58.606Z,2.47
2022-10-19T12:28:32.196Z,2.17
2022-10-19T12:31:04.013Z,2.08
2022-10-19T12:33:46.465Z,3.63
2022-10-19T12:36:26.557Z,4.60
2022-10-19T12:39:05.705Z,1.30
2022-10-19T12:41:45.855Z,4.97
2022-10-19T12:44:48.134Z,3.83
2022-10-19T12:47:20.749Z,2.00
2022-10-19T12:49:52.863Z,1.75
2022-10-19T12:52:39.306Z,2.40
2022-10-19T12:55:29.812Z,4.22
2022-10-19T12:58:02.940Z,3.15
2022-10-19T13:00:34.647Z,2.55
2022-10-19T13:03:08.204Z,0.40
2022-10-19T13:05:40.155Z,2.47
2022-10-19T13:08:12.352Z,1.67
2022-10-19T13:11:03.706Z,2.00
2022-10-19T13:14:04.879Z,2.83
2022-10-19T13:16:57.589Z,2.03
2022-10-19T13:19:28.247Z,3.42
2022-10-19T13:22:26.975Z,3.08
2022-10-19T13:25:27.157Z,3.53
2022-10-19T13:28:01.307Z,3.38
2022-10-19T13:31:04.975Z,2.15
2022-10-19T13:33:51.090Z,5.20
2022-10-19T13:36:22.112Z,5.75
2022-10-19T13:39:08.597Z,3.00
2022-10-19T13:41:57.296Z,5.22
2022-10-19T13:44:35.517Z,3.60
2022-10-19T13:47:43.614Z,6.35
2022-10-19T13:50:30.401Z,4.78
2022-10-19T13:53:34.111Z,5.82
2022-10-19T13:56:32.656Z,2.95
2022-10-19T13:59:43.608Z,2.57
2022-10-19T14:02:56.922Z,1.45
2022-10-19T14:05:54.522Z,2.38
2022-10-19T14:08:41.869Z,1.80
2022-10-19T14:11:19.199Z,1.60
2022-10-19T14:14:08.057Z,1.23
2022-10-19T14:16:45.999Z,5.28
2022-10-19T14:19:21.056Z,3.33
2022-10-19T14:21:50.520Z,2.80
2022-10-19T14:24:28.846Z,4.63
2022-10-19T14:27:01.570Z,2.47
2022-10-19T14:29:32.519Z,2.88
2022-10-19T14:32:02.012Z,7.60
2022-10-19T14:34:31.631Z,1.27
2022-10-19T14:37:01.259Z,2.05
2022-10-19T14:39:34.267Z,1.90
2022-10-19T14:42:11.093Z,2.33
2022-10-19T14:44:43.217Z,1.63
2022-10-19T14:47:20.547Z,2.40
2022-10-19T14:49:50.425Z,4.10
2022-10-19T14:52:25.515Z,3.13
2022-10-19T14:54:56.963Z,2.08
2022-10-19T14:57:30.982Z,3.40
2022-10-19T15:00:03.257Z,3.95
2022-10-19T15:02:39.990Z,5.75
2022-10-19T15:05:20.404Z,4.68
2022-10-19T15:07:50.355Z,1.77
2022-10-19T15:10:24.280Z,4.00
2022-10-19T15:13:02.623Z,3.08
2022-10-19T15:15:34.867Z,2.80
2022-10-19T15:18:06.797Z,4.88
2022-10-19T15:20:49.290Z,11.98
2022-10-19T15:23:39.513Z,3.22
2022-10-19T15:26:18.367Z,2.85
2022-10-19T15:28:50.218Z,3.97
2022-10-19T15:31:22.070Z,4.72
2022-10-19T15:33:54.372Z,3.10
2022-10-19T15:36:25.537Z,4.40
2022-10-19T15:39:18.460Z,8.98
2022-10-19T15:41:53.736Z,3.27
2022-10-19T15:44:41.570Z,1.42
2022-10-19T15:47:23.291Z,4.18
2022-10-19T15:49:59.265Z,5.53
2022-10-19T15:52:30.161Z,1.50
2022-10-19T15:55:01.495Z,11.32
2022-10-19T15:57:33.695Z,6.50
2022-10-19T16:00:13.581Z,7.85
2022-10-19T16:02:44.285Z,4.47
2022-10-19T16:07:43.151Z,5.63
2022-10-19T16:10:19.818Z,22.10
2022-10-19T16:12:49.324Z,5.20
2022-10-19T16:15:23.493Z,11.88
2022-10-19T16:17:55.401Z,5.65
2022-10-19T16:20:26.312Z,21.63
2022-10-19T16:22:55.876Z,20.05
2022-10-19T16:25:25.156Z,8.45
2022-10-19T16:27:55.327Z,10.32
2022-10-19T16:30:26.374Z,6.95
2022-10-19T16:32:56.146Z,15.20
2022-10-19T16:35:25.527Z,12.60
2022-10-19T16:37:55.074Z,27.58
2022-10-19T16:40:24.674Z,16.75
2022-10-19T16:45:27.460Z,22.98
2022-10-19T16:47:57.131Z,11.80
2022-10-19T16:50:26.646Z,11.35
2022-10-19T16:53:10.199Z,18.00
2022-10-19T16:55:40.713Z,19.52
2022-10-19T16:58:10.212Z,15.00
2022-10-19T17:00:40.948Z,9.35
2022-10-19T17:03:10.282Z,9.20
2022-10-19T17:05:40.352Z,5.68
2022-10-19T17:08:12.043Z,5.32
2022-10-19T17:10:41.378Z,18.40
2022-10-19T17:13:10.718Z,20.48
2022-10-19T17:15:43.280Z,29.55
2022-10-19T17:18:13.122Z,43.80
2022-10-19T17:20:42.488Z,23.67
2022-10-19T17:25:49.033Z,8.18
2022-10-19T17:28:18.474Z,8.73
2022-10-19T17:30:49.241Z,7.90
2022-10-19T17:33:19.669Z,8.95
2022-10-19T17:35:48.991Z,6.53
2022-10-19T17:40:47.536Z,12.93
2022-10-19T17:43:17.134Z,10.13
2022-10-19T17:45:47.711Z,10.02
2022-10-19T17:48:17.421Z,10.00
2022-10-19T17:50:46.631Z,7.75
2022-10-19T17:53:15.933Z,9.38
2022-10-19T17:55:45.781Z,15.18
2022-10-19T17:58:15.388Z,18.30
2022-10-19T18:03:15.415Z,9.55
2022-10-19T18:05:44.636Z,7.45
2022-10-19T18:08:13.931Z,7.10
2022-10-19T18:10:43.435Z,5.20
2022-10-19T18:15:41.825Z,7.40
2022-10-19T18:18:11.127Z,7.00
2022-10-19T18:20:42.651Z,8.98
2022-10-19T18:23:12.390Z,5.55
2022-10-19T18:25:53.821Z,10.25
2022-10-19T18:28:24.041Z,9.55
2022-10-19T18:30:53.239Z,13.52
2022-10-19T18:33:23.490Z,13.63
2022-10-19T18:35:58.643Z,13.63
2022-10-19T18:38:28.265Z,15.65
2022-10-19T18:41:01.827Z,15.45
2022-10-19T18:43:31.835Z,11.15
2022-10-19T18:46:01.903Z,14.18
2022-10-19T18:48:31.993Z,16.67
2022-10-19T18:51:06.247Z,19.52
2022-10-19T18:53:36.826Z,17.00
2022-10-19T18:56:09.488Z,17.65
2022-10-19T18:58:39.534Z,15.98
2022-10-19T19:01:11.262Z,13.00
2022-10-19T19:03:42.362Z,16.15
2022-10-19T19:06:15.251Z,16.02
2022-10-19T19:08:45.857Z,17.88
2022-10-19T19:11:16.993Z,13.75
2022-10-19T19:13:50.636Z,16.63
2022-10-19T19:16:20.103Z,20.15
2022-10-19T19:18:49.691Z,18.58
2022-10-19T19:21:23.325Z,25.67
2022-10-19T19:23:53.905Z,11.30
2022-10-19T19:26:26.482Z,19.73
2022-10-19T19:28:57.287Z,19.98
2022-10-19T19:31:27.238Z,16.85
2022-10-19T19:33:56.983Z,15.60
2022-10-19T19:36:28.529Z,20.95
2022-10-19T19:38:59.196Z,16.30
2022-10-19T19:41:29.230Z,19.35
2022-10-19T19:43:59.051Z,18.63
2022-10-19T19:49:02.386Z,13.55
2022-10-19T19:51:34.204Z,15.60
2022-10-19T19:54:04.069Z,12.82
2022-10-19T19:59:04.573Z,15.30
2022-10-19T20:01:35.886Z,18.40
2022-10-19T20:04:06.301Z,14.30
2022-10-19T20:06:38.756Z,13.60
2022-10-19T20:09:10.783Z,17.63
2022-10-19T20:11:42.741Z,12.30
2022-10-19T20:14:12.679Z,14.65
2022-10-19T20:16:41.998Z,14.15
2022-10-19T20:19:14.131Z,18.25
2022-10-19T20:21:45.814Z,15.88
2022-10-19T20:24:15.396Z,22.73
2022-10-19T20:26:44.517Z,17.48
2022-10-19T20:29:14.104Z,16.20
2022-10-19T20:31:43.324Z,16.70
2022-10-19T20:34:14.332Z,23.70
2022-10-19T20:36:45.301Z,24.30
2022-10-19T20:39:15.219Z,21.98
2022-10-19T20:41:44.497Z,26.77
2022-10-19T20:44:13.811Z,20.98
2022-10-19T20:46:43.270Z,24.20
2022-10-19T20:49:13.886Z,19.45
2022-10-19T20:51:43.304Z,24.17
2022-10-19T20:54:14.603Z,18.90
2022-10-19T20:56:44.083Z,21.42
2022-10-19T21:01:45.382Z,29.33
2022-10-19T21:04:17.059Z,23.05
2022-10-19T21:06:48.088Z,18.05
2022-10-19T21:09:21.168Z,14.98
2022-10-19T21:11:52.412Z,17.98
2022-10-19T21:14:27.147Z,10.43
2022-10-19T21:16:58.886Z,15.00
2022-10-19T21:19:30.942Z,12.70
2022-10-19T21:22:03.337Z,12.13
2022-10-19T21:24:36.753Z,11.05
2022-10-19T21:27:09.287Z,13.02
2022-10-19T21:29:39.194Z,11.45
2022-10-19T21:32:08.312Z,13.65
2022-10-19T21:34:37.782Z,9.95
2022-10-19T21:37:06.908Z,11.48
2022-10-19T21:39:39.570Z,13.15
2022-10-19T21:42:08.817Z,15.98
2022-10-19T21:44:38.111Z,18.30
2022-10-19T21:47:07.975Z,14.95
2022-10-19T21:49:37.512Z,16.05
2022-10-19T21:52:06.941Z,20.88
2022-10-19T21:57:06.796Z,17.67
2022-10-19T21:59:36.131Z,17.33
2022-10-19T22:02:05.487Z,15.02
2022-10-19T22:04:34.800Z,13.15
2022-10-19T22:07:05.264Z,12.68
2022-10-19T22:09:34.850Z,16.70
2022-10-19T22:12:05.575Z,11.35
2022-10-19T22:14:35.062Z,11.75
2022-10-19T22:17:04.186Z,10.75
2022-10-19T22:19:33.690Z,13.60
2022-10-19T22:22:03.192Z,10.32
2022-10-19T22:27:01.552Z,9.63
2022-10-19T22:29:32.670Z,6.97
2022-10-19T22:32:01.988Z,10.32
2022-10-19T22:34:32.345Z,11.45
2022-10-19T22:37:01.631Z,13.40
2022-10-19T22:39:31.149Z,12.77
2022-10-19T22:42:00.402Z,9.70
2022-10-19T22:44:31.213Z,15.02
2022-10-19T22:47:00.926Z,8.77
2022-10-19T22:49:30.276Z,12.68
2022-10-19T22:51:59.220Z,14.45
2022-10-19T22:54:28.423Z,10.95
2022-10-19T22:56:57.816Z,8.77
2022-10-19T22:59:27.138Z,13.23
2022-10-19T23:01:58.023Z,10.30
2022-10-19T23:04:27.376Z,13.63
2022-10-19T23:06:56.508Z,10.68
2022-10-19T23:09:25.716Z,11.63
2022-10-19T23:11:54.926Z,9.48
2022-10-19T23:14:24.141Z,9.50
2022-10-19T23:16:53.226Z,8.52
2022-10-19T23:19:23.983Z,10.35
2022-10-19T23:21:53.084Z,7.22
2022-10-19T23:24:22.460Z,8.02
2022-10-19T23:26:53.598Z,11.20
2022-10-19T23:29:23.156Z,9.52
2022-10-19T23:31:52.184Z,9.43
2022-10-19T23:34:22.879Z,10.13
2022-10-19T23:36:51.874Z,10.70
2022-10-19T23:39:21.045Z,10.45
2022-10-19T23:41:50.050Z,9.68
2022-10-19T23:44:19.403Z,9.63
2022-10-19T23:46:48.410Z,12.43
2022-10-19T23:49:17.634Z,9.30
2022-10-19T23:51:48.102Z,10.30
2022-10-19T23:54:17.399Z,12.80
2022-10-19T23:56:46.363Z,15.40
2022-10-19T23:59:15.804Z,6.88
